createdAt,value
2019-02-14T00:00:44.358Z,4.30
2019-02-14T00:03:14.212Z,4.30
2019-02-14T00:05:43.757Z,4.30
2019-02-14T00:08:13.198Z,4.30
2019-02-14T00:10:43.010Z,4.30
2019-02-14T00:13:12.506Z,4.30
2019-02-14T00:15:42.010Z,4.30
2019-02-14T00:18:11.580Z,4.30
2019-02-14T00:20:41.088Z,4.30
2019-02-14T00:23:10.777Z,4.30
2019-02-14T00:25:40.282Z,4.30
2019-02-14T00:28:09.692Z,4.20
2019-02-14T00:30:39.310Z,4.20
2019-02-14T00:33:08.825Z,4.30
2019-02-14T00:35:38.264Z,4.30
2019-02-14T00:38:08.502Z,4.30
2019-02-14T00:40:38.309Z,4.30
2019-02-14T00:43:07.818Z,4.40
2019-02-14T00:45:37.348Z,4.30
2019-02-14T00:48:07.080Z,4.30
2019-02-14T00:50:36.614Z,4.20
2019-02-14T00:53:06.224Z,4.20
2019-02-14T00:55:35.688Z,4.20
2019-02-14T00:58:05.148Z,4.20
2019-02-14T01:00:34.828Z,4.30
2019-02-14T01:03:04.294Z,4.30
2019-02-14T01:05:33.991Z,4.30
2019-02-14T01:08:03.662Z,4.30
2019-02-14T01:10:33.071Z,4.30
2019-02-14T01:13:02.541Z,4.20
2019-02-14T01:15:32.902Z,4.20
2019-02-14T01:18:02.526Z,4.20
2019-02-14T01:20:32.020Z,4.30
2019-02-14T01:23:01.858Z,4.30
2019-02-14T01:25:31.353Z,4.30
2019-02-14T01:28:00.777Z,4.30
2019-02-14T01:30:30.515Z,4.20
2019-02-14T01:33:00.114Z,4.30
2019-02-14T01:35:29.603Z,4.30
2019-02-14T01:37:59.173Z,4.30
2019-02-14T01:40:28.569Z,4.20
2019-02-14T01:42:58.113Z,4.20
2019-02-14T01:45:27.907Z,4.20
2019-02-14T01:47:57.376Z,4.30
2019-02-14T01:50:26.799Z,4.30
2019-02-14T01:52:56.456Z,4.40
2019-02-14T01:55:25.970Z,4.40
2019-02-14T01:57:55.393Z,4.40
2019-02-14T02:00:25.362Z,4.40
2019-02-14T02:02:54.848Z,4.40
2019-02-14T02:05:24.499Z,4.40
2019-02-14T02:07:53.957Z,4.40
2019-02-14T02:10:23.603Z,4.40
2019-02-14T02:12:53.409Z,4.40
2019-02-14T02:15:22.881Z,4.40
2019-02-14T02:17:52.629Z,4.50
2019-02-14T02:20:22.091Z,4.50
2019-02-14T02:22:51.519Z,4.50
2019-02-14T02:25:21.438Z,4.60
2019-02-14T02:27:50.857Z,4.60
2019-02-14T02:30:20.324Z,4.60
2019-02-14T02:32:49.844Z,4.60
2019-02-14T02:35:19.324Z,4.60
2019-02-14T02:37:48.769Z,4.50
2019-02-14T02:40:18.520Z,4.60
2019-02-14T02:42:47.951Z,4.60
2019-02-14T02:45:17.361Z,4.60
2019-02-14T02:47:46.783Z,4.60
2019-02-14T02:50:16.385Z,4.60
2019-02-14T02:52:45.844Z,4.70
2019-02-14T02:55:15.380Z,4.70
2019-02-14T02:57:44.994Z,4.60
2019-02-14T03:00:16.399Z,4.60
2019-02-14T03:02:45.903Z,4.60
2019-02-14T03:05:15.700Z,4.60
2019-02-14T03:07:45.183Z,4.50
2019-02-14T03:10:14.698Z,4.60
2019-02-14T03:12:44.166Z,4.60
2019-02-14T03:15:14.012Z,4.60
2019-02-14T03:17:43.679Z,4.60
2019-02-14T03:20:13.217Z,4.60
2019-02-14T03:22:42.603Z,4.60
2019-02-14T03:25:14.656Z,4.60
2019-02-14T03:27:44.327Z,4.60
2019-02-14T03:30:14.592Z,4.50
2019-02-14T03:32:44.057Z,4.50
2019-02-14T03:35:13.609Z,4.50
2019-02-14T03:37:43.410Z,4.50
2019-02-14T03:40:12.947Z,4.50
2019-02-14T03:42:42.978Z,4.50
2019-02-14T03:45:15.015Z,4.50
2019-02-14T03:47:44.434Z,4.50
2019-02-14T03:50:14.465Z,4.50
2019-02-14T03:52:43.923Z,4.50
2019-02-14T03:55:13.775Z,4.50
2019-02-14T03:57:43.218Z,4.40
2019-02-14T04:00:14.598Z,4.40
2019-02-14T04:02:44.268Z,4.30
2019-02-14T04:05:13.836Z,4.30
2019-02-14T04:07:43.506Z,4.40
2019-02-14T04:10:13.273Z,4.30
2019-02-14T04:12:42.742Z,4.40
2019-02-14T04:15:13.737Z,4.30
2019-02-14T04:17:43.600Z,4.40
2019-02-14T04:20:13.060Z,4.40
2019-02-14T04:22:42.809Z,4.30
2019-02-14T04:25:12.993Z,4.40
2019-02-14T04:27:42.443Z,4.40
2019-02-14T04:30:12.437Z,4.30
2019-02-14T04:32:41.866Z,4.40
2019-02-14T04:35:11.842Z,4.40
2019-02-14T04:37:41.366Z,4.30
2019-02-14T04:40:12.508Z,4.30
2019-02-14T04:42:42.178Z,4.40
2019-02-14T04:45:11.717Z,4.30
2019-02-14T04:47:41.149Z,4.30
2019-02-14T04:50:10.646Z,4.40
2019-02-14T04:52:40.328Z,4.40
2019-02-14T04:55:09.996Z,4.40
2019-02-14T04:57:39.406Z,4.40
2019-02-14T05:00:10.139Z,4.40
2019-02-14T05:02:39.556Z,4.40
2019-02-14T05:05:09.489Z,4.40
2019-02-14T05:07:38.977Z,4.40
2019-02-14T05:10:08.993Z,4.40
2019-02-14T05:12:38.513Z,4.40
2019-02-14T05:15:08.585Z,4.40
2019-02-14T05:17:38.049Z,4.40
2019-02-14T05:20:08.659Z,4.40
2019-02-14T05:22:38.149Z,4.40
2019-02-14T05:25:08.121Z,4.30
2019-02-14T05:27:37.651Z,4.40
2019-02-14T05:30:09.279Z,4.40
2019-02-14T05:32:38.799Z,4.40
2019-02-14T05:35:08.877Z,4.40
2019-02-14T05:37:38.366Z,4.40
2019-02-14T05:40:08.752Z,4.30
2019-02-14T05:42:39.267Z,4.30
2019-02-14T05:45:09.729Z,4.40
2019-02-14T05:47:39.253Z,4.40
2019-02-14T05:50:09.542Z,4.40
2019-02-14T05:52:39.158Z,4.30
2019-02-14T05:55:10.271Z,4.40
2019-02-14T05:57:39.725Z,4.30
2019-02-14T06:00:11.499Z,4.30
2019-02-14T06:02:40.954Z,4.30
2019-02-14T06:05:10.448Z,4.30
2019-02-14T06:07:39.975Z,4.30
2019-02-14T06:10:09.702Z,4.30
2019-02-14T06:12:39.323Z,4.30
2019-02-14T06:15:09.447Z,4.30
2019-02-14T06:17:38.872Z,4.30
2019-02-14T06:20:08.903Z,4.30
2019-02-14T06:22:38.447Z,4.40
2019-02-14T06:25:08.093Z,4.40
2019-02-14T06:27:37.570Z,4.40
2019-02-14T06:30:08.729Z,4.40
2019-02-14T06:32:38.389Z,4.40
2019-02-14T06:35:08.861Z,4.40
2019-02-14T06:37:38.298Z,4.40
2019-02-14T06:40:09.092Z,4.40
2019-02-14T06:42:38.409Z,4.40
2019-02-14T06:45:09.856Z,4.40
2019-02-14T06:47:39.800Z,4.50
2019-02-14T06:50:10.332Z,4.50
2019-02-14T06:52:40.510Z,4.50
2019-02-14T06:55:10.406Z,4.50
2019-02-14T06:57:40.034Z,4.50
2019-02-14T07:00:11.534Z,4.50
2019-02-14T07:02:41.138Z,4.50
2019-02-14T07:05:11.518Z,4.60
2019-02-14T07:07:42.099Z,4.50
2019-02-14T07:10:11.596Z,4.60
2019-02-14T07:12:41.747Z,4.50
2019-02-14T07:15:11.769Z,4.50
2019-02-14T07:17:41.291Z,4.60
2019-02-14T07:20:12.472Z,4.60
2019-02-14T07:22:41.868Z,4.60
2019-02-14T07:25:11.728Z,4.60
2019-02-14T07:27:41.610Z,4.70
2019-02-14T07:30:14.042Z,4.70
2019-02-14T07:32:43.522Z,4.70
2019-02-14T07:35:13.368Z,4.80
2019-02-14T07:37:42.998Z,4.80
2019-02-14T07:40:13.298Z,5.00
2019-02-14T07:42:43.237Z,5.00
2019-02-14T07:45:14.484Z,5.00
2019-02-14T07:47:43.920Z,5.00
2019-02-14T07:50:13.092Z,5.10
2019-02-14T07:52:43.003Z,5.10
2019-02-14T07:55:12.461Z,5.10
2019-02-14T07:57:42.240Z,5.20
2019-02-14T08:00:13.450Z,5.20
2019-02-14T08:02:43.045Z,5.20
2019-02-14T08:05:12.775Z,5.30
2019-02-14T08:07:42.297Z,5.30
2019-02-14T08:10:13.131Z,5.30
2019-02-14T08:12:42.621Z,5.30
2019-02-14T08:15:13.272Z,5.30
2019-02-14T08:17:43.015Z,5.30
2019-02-14T08:20:13.617Z,5.30
2019-02-14T08:22:43.180Z,5.30
2019-02-14T08:25:12.961Z,5.40
2019-02-14T08:27:42.474Z,5.50
2019-02-14T08:30:13.779Z,5.50
2019-02-14T08:32:43.269Z,5.50
2019-02-14T08:35:13.038Z,5.60
2019-02-14T08:37:45.683Z,5.50
2019-02-14T08:40:16.683Z,5.60
2019-02-14T08:42:46.239Z,5.50
2019-02-14T08:45:16.352Z,5.60
2019-02-14T08:47:46.086Z,5.60
2019-02-14T08:50:15.551Z,5.70
2019-02-14T08:52:45.362Z,5.60
2019-02-14T08:55:14.961Z,5.60
2019-02-14T08:57:44.482Z,5.50
2019-02-14T09:00:14.203Z,5.50
2019-02-14T09:02:43.647Z,5.70
2019-02-14T09:05:13.234Z,5.80
2019-02-14T09:07:42.753Z,5.80
2019-02-14T09:10:13.285Z,5.70
2019-02-14T09:12:43.029Z,5.80
2019-02-14T09:15:12.863Z,5.80
2019-02-14T09:17:42.410Z,5.80
2019-02-14T09:20:13.021Z,6.00
2019-02-14T09:22:42.569Z,6.30
2019-02-14T09:25:12.563Z,6.10
2019-02-14T09:27:42.009Z,6.30
2019-02-14T09:30:11.533Z,6.20
2019-02-14T09:32:40.969Z,6.20
2019-02-14T09:35:10.647Z,6.20
2019-02-14T09:37:40.250Z,6.10
2019-02-14T09:40:11.053Z,6.10
2019-02-14T09:42:40.845Z,6.10
2019-02-14T09:45:11.275Z,6.20
2019-02-14T09:47:40.773Z,6.50
2019-02-14T09:50:11.271Z,6.60
2019-02-14T09:52:41.050Z,6.80
2019-02-14T09:55:11.288Z,7.00
2019-02-14T09:57:40.856Z,6.80
2019-02-14T10:00:13.139Z,6.80
2019-02-14T10:02:42.627Z,6.90
2019-02-14T10:05:12.502Z,6.90
2019-02-14T10:07:41.990Z,6.60
2019-02-14T10:10:14.113Z,6.80
2019-02-14T10:12:43.814Z,6.90
2019-02-14T10:15:13.760Z,7.10
2019-02-14T10:17:43.216Z,6.90
2019-02-14T10:20:14.623Z,7.10
2019-02-14T10:22:44.202Z,7.20
2019-02-14T10:25:13.709Z,7.60
2019-02-14T10:27:43.374Z,7.70
2019-02-14T10:30:15.476Z,8.10
2019-02-14T10:32:44.967Z,7.90
2019-02-14T10:35:14.787Z,7.80
2019-02-14T10:37:44.360Z,7.80
2019-02-14T10:40:14.572Z,7.60
2019-02-14T10:42:44.068Z,7.30
2019-02-14T10:45:15.638Z,7.60
2019-02-14T10:47:47.776Z,8.10
2019-02-14T10:50:17.298Z,8.90
2019-02-14T10:52:46.870Z,9.50
2019-02-14T10:55:17.152Z,8.90
2019-02-14T10:57:46.602Z,8.80
2019-02-14T11:00:19.408Z,8.30
2019-02-14T11:02:49.998Z,8.40
2019-02-14T11:05:20.221Z,8.10
2019-02-14T11:07:49.850Z,9.30
2019-02-14T11:10:19.536Z,8.70
2019-02-14T11:12:49.022Z,8.80
2019-02-14T11:15:20.935Z,9.60
2019-02-14T11:17:50.487Z,9.40
2019-02-14T11:20:19.921Z,9.00
2019-02-14T11:22:49.685Z,8.60
2019-02-14T11:25:25.198Z,8.20
2019-02-14T11:27:55.030Z,8.70
2019-02-14T11:30:24.432Z,8.50
2019-02-14T11:32:54.254Z,8.70
2019-02-14T11:35:23.752Z,8.70
2019-02-14T11:37:53.177Z,8.80
2019-02-14T11:40:22.839Z,9.40
2019-02-14T11:42:52.353Z,10.40
2019-02-14T11:45:21.979Z,11.00
2019-02-14T11:47:51.694Z,11.60
2019-02-14T11:50:21.119Z,11.10
2019-02-14T11:52:50.744Z,10.70
2019-02-14T11:55:20.252Z,10.30
2019-02-14T11:57:49.852Z,9.50
2019-02-14T12:00:23.478Z,9.00
2019-02-14T12:02:56.117Z,9.40
2019-02-14T12:05:24.298Z,10.60
2019-02-14T12:07:53.830Z,11.30
2019-02-14T12:10:23.298Z,10.00
2019-02-14T12:12:52.803Z,9.70
2019-02-14T12:15:23.368Z,9.80
2019-02-14T12:17:52.983Z,9.60
2019-02-14T12:20:22.445Z,11.70
2019-02-14T12:22:52.208Z,13.90
2019-02-14T12:25:21.821Z,12.20
2019-02-14T12:27:51.411Z,11.60
2019-02-14T12:30:20.924Z,11.60
2019-02-14T12:32:50.411Z,12.70
2019-02-14T12:35:19.899Z,13.80
2019-02-14T12:37:49.606Z,14.60
2019-02-14T12:40:19.090Z,15.80
2019-02-14T12:42:48.626Z,14.90
2019-02-14T12:45:21.707Z,15.00
2019-02-14T12:47:50.430Z,14.50
2019-02-14T12:50:19.983Z,13.80
2019-02-14T12:52:49.683Z,14.90
2019-02-14T12:55:19.158Z,14.80
2019-02-14T12:57:48.689Z,14.10
2019-02-14T13:00:19.629Z,15.70
2019-02-14T13:02:49.076Z,14.60
2019-02-14T13:05:18.899Z,15.00
2019-02-14T13:07:48.463Z,14.70
2019-02-14T13:10:19.080Z,14.30
2019-02-14T13:12:48.634Z,13.10
2019-02-14T13:15:19.733Z,11.80
2019-02-14T13:17:49.208Z,11.60
2019-02-14T13:20:18.916Z,10.10
2019-02-14T13:22:48.449Z,11.60
2019-02-14T13:25:18.032Z,11.40
2019-02-14T13:27:47.764Z,12.10
2019-02-14T13:30:21.271Z,12.40
2019-02-14T13:32:51.294Z,12.40
2019-02-14T13:35:21.283Z,12.30
2019-02-14T13:37:50.744Z,12.90
2019-02-14T13:40:20.326Z,12.50
2019-02-14T13:42:49.762Z,12.00
2019-02-14T13:45:21.542Z,12.10
2019-02-14T13:47:51.379Z,11.90
2019-02-14T13:50:20.949Z,11.70
2019-02-14T13:52:50.468Z,12.60
2019-02-14T13:55:19.991Z,13.40
2019-02-14T13:57:49.450Z,13.20
2019-02-14T14:00:22.194Z,14.50
2019-02-14T14:02:51.676Z,13.80
2019-02-14T14:05:21.112Z,13.30
2019-02-14T14:07:50.706Z,13.80
2019-02-14T14:10:20.233Z,14.30
2019-02-14T14:12:49.715Z,14.40
2019-02-14T14:15:19.662Z,14.50
2019-02-14T14:17:49.179Z,13.50
2019-02-14T14:20:18.789Z,12.30
2019-02-14T14:22:48.281Z,12.60
2019-02-14T14:25:17.771Z,12.50
2019-02-14T14:27:47.344Z,12.10
2019-02-14T14:30:16.841Z,12.30
2019-02-14T14:32:46.259Z,11.70
2019-02-14T14:35:15.917Z,10.90
2019-02-14T14:37:45.436Z,11.20
2019-02-14T14:40:15.370Z,10.90
2019-02-14T14:43:03.752Z,10.70
2019-02-14T14:45:46.247Z,10.60
2019-02-14T14:48:19.552Z,8.90
2019-02-14T14:50:46.885Z,8.70
2019-02-14T14:53:16.455Z,8.40
2019-02-14T14:55:45.909Z,7.80
2019-02-14T14:58:15.383Z,7.70
2019-02-14T15:00:44.903Z,7.50
2019-02-14T15:03:14.345Z,7.40
2019-02-14T15:05:43.847Z,7.20
2019-02-14T15:08:13.310Z,7.20
2019-02-14T15:10:42.756Z,6.90
2019-02-14T15:13:12.613Z,6.60
2019-02-14T15:15:42.145Z,6.70
2019-02-14T15:18:12.055Z,6.50
2019-02-14T15:20:41.538Z,6.50
2019-02-14T15:23:11.128Z,6.30
2019-02-14T15:25:40.646Z,6.30
2019-02-14T15:28:10.167Z,6.10
2019-02-14T15:30:39.796Z,6.00
2019-02-14T15:33:09.366Z,5.90
2019-02-14T15:35:38.815Z,5.90
2019-02-14T15:38:09.765Z,5.80
2019-02-14T15:40:39.339Z,5.70
2019-02-14T15:43:08.864Z,5.50
2019-02-14T15:45:38.444Z,5.40
2019-02-14T15:48:07.954Z,5.20
2019-02-14T15:50:37.729Z,5.10
2019-02-14T15:53:07.647Z,4.90
2019-02-14T15:55:39.077Z,4.80
2019-02-14T15:58:09.296Z,4.80
2019-02-14T16:00:38.816Z,4.70
2019-02-14T16:03:08.283Z,4.70
2019-02-14T16:05:38.488Z,4.60
2019-02-14T16:08:08.996Z,4.50
2019-02-14T16:10:38.448Z,4.30
2019-02-14T16:13:09.781Z,4.30
2019-02-14T16:15:39.036Z,4.30
2019-02-14T16:18:08.932Z,4.10
2019-02-14T16:20:40.389Z,4.00
2019-02-14T16:23:09.512Z,3.80
2019-02-14T16:25:39.292Z,3.80
2019-02-14T16:28:11.019Z,3.80
2019-02-14T16:30:39.942Z,3.70
2019-02-14T16:33:09.466Z,3.50
2019-02-14T16:35:39.063Z,3.40
2019-02-14T16:38:10.131Z,3.30
2019-02-14T16:40:39.733Z,3.30
2019-02-14T16:43:09.146Z,3.30
2019-02-14T16:45:38.863Z,3.30
2019-02-14T16:48:08.421Z,3.30
2019-02-14T16:50:37.972Z,3.50
2019-02-14T16:53:07.600Z,3.50
2019-02-14T16:55:37.135Z,3.50
2019-02-14T16:58:06.603Z,3.60
2019-02-14T17:00:36.362Z,3.60
2019-02-14T17:03:05.865Z,3.50
2019-02-14T17:05:35.570Z,3.50
2019-02-14T17:08:05.304Z,3.50
2019-02-14T17:10:36.989Z,3.60
2019-02-14T17:13:05.806Z,3.60
2019-02-14T17:15:35.240Z,3.40
2019-02-14T17:18:04.821Z,3.40
2019-02-14T17:20:34.341Z,3.30
2019-02-14T17:23:03.832Z,3.20
2019-02-14T17:25:33.431Z,3.10
2019-02-14T17:28:03.815Z,3.10
2019-02-14T17:30:33.366Z,3.10
2019-02-14T17:33:03.044Z,3.10
2019-02-14T17:35:32.609Z,3.10
2019-02-14T17:38:02.063Z,3.10
2019-02-14T17:40:31.506Z,3.00
2019-02-14T17:43:01.007Z,3.00
2019-02-14T17:45:30.451Z,3.00
2019-02-14T17:47:59.925Z,3.00
2019-02-14T17:50:29.417Z,3.00
2019-02-14T17:52:58.910Z,3.10
2019-02-14T17:55:28.333Z,3.10
2019-02-14T17:57:57.898Z,3.20
2019-02-14T18:00:28.240Z,3.20
2019-02-14T18:02:57.729Z,3.30
2019-02-14T18:05:27.950Z,3.30
2019-02-14T18:07:58.293Z,3.40
2019-02-14T18:10:27.868Z,3.50
2019-02-14T18:12:57.577Z,3.50
2019-02-14T18:15:27.120Z,3.50
2019-02-14T18:17:56.849Z,3.60
2019-02-14T18:20:26.398Z,3.60
2019-02-14T18:22:55.901Z,3.60
2019-02-14T18:25:25.677Z,3.60
2019-02-14T18:27:55.169Z,3.70
2019-02-14T18:30:24.764Z,3.60
2019-02-14T18:32:54.222Z,3.70
2019-02-14T18:35:23.676Z,3.70
2019-02-14T18:37:53.344Z,3.70
2019-02-14T18:40:22.892Z,3.80
2019-02-14T18:42:52.454Z,3.80
2019-02-14T18:45:22.157Z,3.90
2019-02-14T18:47:51.719Z,3.80
2019-02-14T18:50:21.273Z,3.80
2019-02-14T18:52:50.805Z,3.90
2019-02-14T18:55:20.479Z,3.90
2019-02-14T18:57:49.988Z,4.00
2019-02-14T19:00:19.488Z,4.00
2019-02-14T19:02:48.999Z,4.00
2019-02-14T19:05:18.435Z,3.90
2019-02-14T19:07:47.915Z,3.90
2019-02-14T19:10:17.399Z,4.10
2019-02-14T19:12:46.851Z,4.00
2019-02-14T19:15:16.311Z,4.20
2019-02-14T19:17:45.751Z,4.20
2019-02-14T19:20:15.489Z,4.10
2019-02-14T19:22:44.933Z,4.10
2019-02-14T19:25:14.434Z,4.20
2019-02-14T19:27:43.947Z,4.00
2019-02-14T19:30:13.962Z,4.00
2019-02-14T19:32:43.518Z,4.00
2019-02-14T19:35:22.317Z,4.10
2019-02-14T19:37:44.545Z,4.20
2019-02-14T19:40:14.009Z,4.00
2019-02-14T19:42:43.488Z,4.00
2019-02-14T19:45:13.021Z,4.00
2019-02-14T19:47:42.625Z,4.00
2019-02-14T19:50:12.189Z,4.10
2019-02-14T19:52:41.733Z,4.10
2019-02-14T19:55:11.288Z,4.10
2019-02-14T19:57:40.818Z,4.20
2019-02-14T20:00:11.522Z,4.20
2019-02-14T20:02:41.043Z,4.30
2019-02-14T20:05:11.222Z,4.30
2019-02-14T20:07:40.787Z,4.30
2019-02-14T20:10:11.103Z,4.40
2019-02-14T20:12:40.665Z,4.40
2019-02-14T20:15:12.490Z,4.50
2019-02-14T20:17:41.931Z,4.40
2019-02-14T20:20:11.652Z,4.50
2019-02-14T20:22:41.232Z,4.40
2019-02-14T20:25:12.241Z,4.50
2019-02-14T20:27:41.719Z,4.50
2019-02-14T20:30:11.347Z,4.50
2019-02-14T20:32:41.016Z,4.50
2019-02-14T20:35:10.511Z,4.40
2019-02-14T20:37:40.120Z,4.40
2019-02-14T20:40:09.793Z,4.40
2019-02-14T20:42:39.289Z,4.30
2019-02-14T20:45:09.996Z,4.40
2019-02-14T20:47:39.548Z,4.30
2019-02-14T20:50:10.856Z,4.30
2019-02-14T20:52:40.546Z,4.30
2019-02-14T20:55:11.952Z,4.30
2019-02-14T20:57:41.272Z,4.30
2019-02-14T21:00:20.231Z,4.30
2019-02-14T21:02:49.779Z,4.30
2019-02-14T21:05:19.608Z,4.30
2019-02-14T21:07:49.068Z,4.20
2019-02-14T21:10:18.534Z,4.20
2019-02-14T21:12:48.005Z,4.10
2019-02-14T21:15:17.503Z,4.20
2019-02-14T21:17:46.948Z,4.20
2019-02-14T21:20:16.585Z,4.20
2019-02-14T21:22:45.983Z,4.20
2019-02-14T21:25:16.255Z,4.30
2019-02-14T21:27:45.835Z,4.20
2019-02-14T21:30:16.021Z,4.20
2019-02-14T21:32:45.585Z,4.20
2019-02-14T21:35:15.081Z,4.20
2019-02-14T21:37:44.533Z,4.30
2019-02-14T21:40:14.245Z,4.30
2019-02-14T21:42:43.774Z,4.40
2019-02-14T21:45:13.704Z,4.40
2019-02-14T21:47:43.151Z,4.40
2019-02-14T21:50:12.769Z,4.30
2019-02-14T21:52:42.406Z,4.40
2019-02-14T21:55:11.934Z,4.30
2019-02-14T21:57:41.423Z,4.40
2019-02-14T22:00:14.457Z,4.50
2019-02-14T22:02:44.617Z,4.50
2019-02-14T22:05:14.086Z,4.60
2019-02-14T22:07:43.602Z,4.50
2019-02-14T22:10:13.150Z,4.60
2019-02-14T22:12:43.741Z,4.70
2019-02-14T22:15:15.355Z,4.70
2019-02-14T22:17:44.797Z,4.60
2019-02-14T22:20:14.520Z,4.80
2019-02-14T22:22:43.995Z,4.80
2019-02-14T22:25:13.562Z,4.90
2019-02-14T22:27:43.045Z,4.90
2019-02-14T22:30:15.016Z,4.90
2019-02-14T22:32:44.614Z,5.00
2019-02-14T22:35:14.090Z,5.00
2019-02-14T22:37:43.523Z,5.10
2019-02-14T22:40:13.313Z,5.00
2019-02-14T22:42:47.370Z,5.10
2019-02-14T22:45:14.026Z,5.20
2019-02-14T22:47:44.422Z,5.10
2019-02-14T22:50:14.000Z,5.20
2019-02-14T22:52:43.463Z,5.10
2019-02-14T22:55:12.917Z,5.10
2019-02-14T22:57:42.382Z,5.10
2019-02-14T23:00:30.020Z,5.00
2019-02-14T23:02:59.763Z,5.10
2019-02-14T23:05:29.229Z,5.10
2019-02-14T23:07:58.740Z,4.90
2019-02-14T23:10:28.216Z,4.90
2019-02-14T23:12:57.623Z,4.90
2019-02-14T23:15:27.109Z,5.00
2019-02-14T23:17:56.562Z,5.00
2019-02-14T23:20:26.024Z,4.90
2019-02-14T23:22:55.495Z,4.80
2019-02-14T23:25:24.968Z,4.90
2019-02-14T23:27:54.383Z,4.80
2019-02-14T23:30:23.815Z,4.80
2019-02-14T23:32:53.282Z,4.80
2019-02-14T23:35:22.750Z,4.80
2019-02-14T23:37:52.199Z,4.80
2019-02-14T23:40:22.148Z,4.80
2019-02-14T23:42:51.588Z,4.80
2019-02-14T23:45:21.060Z,4.80
2019-02-14T23:47:50.476Z,4.70
2019-02-14T23:50:19.913Z,4.70
2019-02-14T23:52:49.344Z,4.70
2019-02-14T23:55:18.812Z,4.80
2019-02-14T23:57:48.236Z,4.80
